createdAt,value
2022-08-08T00:00:56.637Z,99.90
2022-08-08T00:02:32.749Z,99.90
2022-08-08T00:05:10.122Z,99.90
2022-08-08T00:07:50.662Z,99.90
2022-08-08T00:10:28.478Z,99.90
2022-08-08T00:13:11.508Z,99.90
2022-08-08T00:16:03.561Z,99.90
2022-08-08T00:18:41.434Z,99.90
2022-08-08T00:21:16.738Z,99.90
2022-08-08T00:23:51.334Z,99.90
2022-08-08T00:26:29.580Z,99.90
2022-08-08T00:29:07.983Z,99.90
2022-08-08T00:32:29.361Z,99.90
2022-08-08T00:35:20.370Z,99.90
2022-08-08T00:38:31.095Z,99.90
2022-08-08T00:42:09.093Z,99.90
2022-08-08T00:45:21.680Z,99.90
2022-08-08T01:01:38.134Z,99.90
2022-08-08T01:05:10.323Z,99.90
2022-08-08T01:08:33.837Z,99.90
2022-08-08T01:11:44.085Z,99.90
2022-08-08T01:14:57.349Z,99.90
2022-08-08T01:18:12.204Z,99.90
2022-08-08T01:22:07.547Z,99.90
2022-08-08T01:24:54.648Z,99.90
2022-08-08T01:28:00.220Z,99.90
2022-08-08T01:32:02.999Z,99.90
2022-08-08T01:34:44.432Z,99.90
2022-08-08T01:37:56.664Z,99.90
2022-08-08T01:40:50.335Z,99.90
2022-08-08T01:43:34.587Z,99.90
2022-08-08T01:46:24.975Z,99.90
2022-08-08T01:49:06.317Z,99.90
2022-08-08T01:52:52.654Z,99.90
2022-08-08T01:55:25.939Z,99.90
2022-08-08T01:58:12.461Z,99.90
2022-08-08T02:00:57.517Z,99.90
2022-08-08T02:03:54.596Z,99.90
2022-08-08T02:06:40.952Z,99.90
2022-08-08T02:10:02.362Z,99.90
2022-08-08T02:12:24.365Z,99.90
2022-08-08T02:15:00.901Z,99.90
2022-08-08T02:17:43.877Z,99.90
2022-08-08T02:21:02.363Z,99.90
2022-08-08T02:23:31.792Z,99.90
2022-08-08T02:26:11.022Z,99.90
2022-08-08T02:29:02.715Z,99.90
2022-08-08T02:32:00.984Z,99.90
2022-08-08T02:35:08.907Z,99.90
2022-08-08T02:38:15.327Z,99.90
2022-08-08T02:42:03.927Z,99.90
2022-08-08T02:45:00.954Z,99.90
2022-08-08T02:48:25.928Z,99.90
2022-08-08T02:51:46.610Z,99.90
2022-08-08T02:54:50.197Z,99.90
2022-08-08T02:58:37.775Z,99.90
2022-08-08T03:01:54.278Z,99.90
2022-08-08T03:05:11.167Z,99.90
2022-08-08T03:08:37.715Z,99.90
2022-08-08T03:12:16.334Z,99.90
2022-08-08T03:15:58.222Z,99.90
2022-08-08T03:18:04.752Z,99.90
2022-08-08T03:20:47.028Z,99.90
2022-08-08T03:23:30.262Z,99.90
2022-08-08T03:26:08.698Z,99.90
2022-08-08T03:28:45.293Z,99.90
2022-08-08T03:32:06.522Z,99.90
2022-08-08T03:34:29.707Z,99.90
2022-08-08T03:36:58.727Z,99.90
2022-08-08T03:39:29.173Z,99.90
2022-08-08T03:42:27.102Z,99.90
2022-08-08T03:44:52.128Z,99.90
2022-08-08T03:47:23.167Z,99.90
2022-08-08T03:50:00.689Z,99.90
2022-08-08T03:52:45.048Z,99.90
2022-08-08T03:55:55.229Z,99.90
2022-08-08T03:58:34.328Z,99.90
2022-08-08T04:01:24.016Z,99.90
2022-08-08T04:03:59.568Z,99.90
2022-08-08T04:06:36.675Z,99.90
2022-08-08T04:09:11.191Z,99.90
2022-08-08T04:11:53.712Z,99.90
2022-08-08T04:14:55.568Z,99.90
2022-08-08T04:17:46.661Z,99.90
2022-08-08T04:20:14.375Z,99.90
2022-08-08T04:22:43.429Z,99.90
2022-08-08T04:25:15.535Z,99.90
2022-08-08T04:28:02.418Z,99.90
2022-08-08T04:30:44.287Z,99.90
2022-08-08T04:33:15.759Z,99.90
2022-08-08T04:35:51.145Z,99.90
2022-08-08T04:38:22.248Z,99.90
2022-08-08T04:40:55.092Z,99.90
2022-08-08T04:43:31.539Z,99.90
2022-08-08T04:46:16.412Z,99.90
2022-08-08T04:49:03.584Z,99.90
2022-08-08T04:51:55.132Z,99.90
2022-08-08T04:54:39.391Z,99.90
2022-08-08T04:57:11.280Z,99.90
2022-08-08T04:59:42.710Z,99.90
2022-08-08T05:02:13.637Z,99.90
2022-08-08T05:04:44.825Z,99.90
2022-08-08T05:07:17.634Z,99.90
2022-08-08T05:09:46.340Z,99.90
2022-08-08T05:12:20.678Z,99.90
2022-08-08T05:15:06.265Z,99.90
2022-08-08T05:17:53.749Z,99.90
2022-08-08T05:20:25.839Z,99.90
2022-08-08T05:22:56.304Z,99.90
2022-08-08T05:25:41.495Z,99.90
2022-08-08T05:28:12.340Z,99.90
2022-08-08T05:30:47.364Z,99.90
2022-08-08T05:33:17.925Z,99.90
2022-08-08T05:35:54.242Z,99.90
2022-08-08T05:38:31.862Z,99.90
2022-08-08T05:41:12.027Z,99.90
2022-08-08T05:44:03.153Z,99.90
2022-08-08T05:46:36.851Z,99.90
2022-08-08T05:49:11.312Z,99.90
2022-08-08T05:51:48.855Z,99.90
2022-08-08T05:54:26.839Z,99.90
2022-08-08T05:56:58.518Z,99.90
2022-08-08T06:00:01.249Z,99.90
2022-08-08T06:02:48.720Z,99.90
2022-08-08T06:05:35.026Z,99.90
2022-08-08T06:08:33.449Z,99.90
2022-08-08T06:11:08.211Z,99.90
2022-08-08T06:13:47.466Z,99.90
2022-08-08T06:16:19.007Z,99.90
2022-08-08T06:19:13.321Z,99.90
2022-08-08T06:21:57.038Z,99.90
2022-08-08T06:24:36.429Z,99.90
2022-08-08T06:27:10.802Z,99.90
2022-08-08T06:30:01.108Z,99.90
2022-08-08T06:32:47.665Z,99.90
2022-08-08T06:36:06.670Z,99.90
2022-08-08T06:38:14.560Z,99.90
2022-08-08T06:40:53.558Z,99.90
2022-08-08T06:43:28.619Z,99.90
2022-08-08T06:46:09.221Z,99.90
2022-08-08T06:48:43.692Z,99.90
2022-08-08T06:51:17.381Z,99.90
2022-08-08T06:53:50.691Z,99.90
2022-08-08T06:56:27.069Z,99.90
2022-08-08T06:58:56.410Z,99.90
2022-08-08T07:02:27.185Z,99.90
2022-08-08T07:04:36.923Z,99.90
2022-08-08T07:07:18.886Z,99.90
2022-08-08T07:10:02.405Z,99.90
2022-08-08T07:12:43.035Z,99.90
2022-08-08T07:15:32.638Z,99.90
2022-08-08T07:18:37.147Z,99.90
2022-08-08T07:21:05.304Z,99.90
2022-08-08T07:24:03.639Z,99.90
2022-08-08T07:26:50.594Z,99.90
2022-08-08T07:30:00.063Z,99.90
2022-08-08T07:32:15.667Z,99.90
2022-08-08T07:35:00.825Z,99.90
2022-08-08T07:37:55.401Z,99.90
2022-08-08T07:40:40.090Z,99.90
2022-08-08T07:43:13.625Z,99.90
2022-08-08T07:46:05.442Z,99.90
2022-08-08T07:48:38.041Z,98.40
2022-08-08T07:51:08.914Z,96.80
2022-08-08T07:54:06.970Z,97.00
2022-08-08T07:56:55.451Z,96.50
2022-08-08T07:59:28.283Z,94.40
2022-08-08T08:02:35.199Z,94.80
2022-08-08T08:05:04.420Z,94.50
2022-08-08T08:07:46.196Z,91.30
2022-08-08T08:10:30.443Z,92.30
2022-08-08T08:13:25.623Z,90.80
2022-08-08T08:16:19.468Z,88.50
2022-08-08T08:18:56.041Z,84.50
2022-08-08T08:21:44.664Z,83.80
2022-08-08T08:24:35.281Z,89.60
2022-08-08T08:27:09.335Z,88.10
2022-08-08T08:29:44.020Z,82.90
2022-08-08T08:32:32.017Z,79.20
2022-08-08T08:35:11.362Z,82.20
2022-08-08T08:38:12.845Z,81.10
2022-08-08T08:40:35.194Z,82.80
2022-08-08T08:43:11.848Z,75.80
2022-08-08T08:45:57.507Z,76.60
2022-08-08T08:48:27.862Z,73.30
2022-08-08T08:51:02.459Z,73.10
2022-08-08T08:53:56.073Z,77.80
2022-08-08T08:56:29.851Z,76.40
2022-08-08T08:59:19.683Z,74.70
2022-08-08T09:01:59.974Z,71.90
2022-08-08T09:04:45.552Z,72.30
2022-08-08T09:07:39.203Z,72.50
2022-08-08T09:10:17.755Z,69.90
2022-08-08T09:12:50.688Z,65.90
2022-08-08T09:15:41.456Z,67.00
2022-08-08T09:18:13.059Z,64.80
2022-08-08T09:22:02.281Z,66.30
2022-08-08T09:23:38.275Z,60.10
2022-08-08T09:26:21.455Z,59.50
2022-08-08T09:28:51.973Z,66.00
2022-08-08T09:31:56.189Z,59.40
2022-08-08T09:34:35.124Z,62.80
2022-08-08T09:37:39.675Z,59.80
2022-08-08T09:40:42.713Z,56.10
2022-08-08T09:43:24.146Z,57.10
2022-08-08T09:46:16.899Z,52.00
2022-08-08T09:49:18.459Z,50.50
2022-08-08T09:52:06.023Z,52.00
2022-08-08T09:54:42.531Z,50.10
2022-08-08T09:57:17.496Z,49.80
2022-08-08T10:02:42.197Z,47.10
2022-08-08T10:05:25.188Z,50.90
2022-08-08T10:08:01.062Z,52.30
2022-08-08T10:10:32.933Z,52.40
2022-08-08T10:13:13.817Z,56.10
2022-08-08T10:16:01.081Z,53.20
2022-08-08T10:18:33.628Z,49.60
2022-08-08T10:21:22.885Z,47.70
2022-08-08T10:23:59.953Z,50.60
2022-08-08T10:26:57.692Z,46.90
2022-08-08T10:29:38.398Z,47.00
2022-08-08T10:32:37.302Z,47.10
2022-08-08T10:35:11.792Z,45.80
2022-08-08T10:37:55.611Z,45.80
2022-08-08T10:40:30.887Z,43.40
2022-08-08T10:43:03.581Z,48.10
2022-08-08T10:45:55.685Z,45.50
2022-08-08T10:48:57.477Z,47.60
2022-08-08T10:51:31.176Z,47.00
2022-08-08T10:54:03.693Z,50.80
2022-08-08T10:56:43.002Z,48.50
2022-08-08T10:59:14.535Z,50.80
2022-08-08T11:01:49.416Z,47.70
2022-08-08T11:04:29.488Z,44.30
2022-08-08T11:07:02.779Z,43.10
2022-08-08T11:09:32.281Z,47.60
2022-08-08T11:12:14.014Z,49.10
2022-08-08T11:14:53.757Z,49.50
2022-08-08T11:18:00.449Z,50.30
2022-08-08T11:20:17.818Z,51.30
2022-08-08T11:22:51.932Z,51.60
2022-08-08T11:25:53.220Z,54.60
2022-08-08T11:28:15.447Z,56.50
2022-08-08T11:30:52.887Z,55.00
2022-08-08T11:33:52.775Z,47.40
2022-08-08T11:36:15.328Z,46.80
2022-08-08T11:38:55.655Z,48.90
2022-08-08T11:41:27.935Z,50.80
2022-08-08T11:44:03.824Z,49.40
2022-08-08T11:46:35.285Z,50.10
2022-08-08T11:49:11.518Z,52.30
2022-08-08T11:51:50.770Z,56.70
2022-08-08T11:54:33.619Z,50.20
2022-08-08T11:57:27.434Z,46.60
2022-08-08T12:00:06.314Z,46.50
2022-08-08T12:02:51.110Z,45.10
2022-08-08T12:05:22.527Z,42.80
2022-08-08T12:07:56.734Z,40.90
2022-08-08T12:10:28.154Z,41.70
2022-08-08T12:13:05.488Z,39.50
2022-08-08T12:15:41.857Z,39.90
2022-08-08T12:18:18.107Z,39.30
2022-08-08T12:20:53.348Z,40.00
2022-08-08T12:23:43.376Z,40.10
2022-08-08T12:26:28.022Z,37.60
2022-08-08T12:29:21.850Z,41.60
2022-08-08T12:32:09.441Z,39.10
2022-08-08T12:34:43.439Z,40.30
2022-08-08T12:37:21.707Z,38.10
2022-08-08T12:40:02.019Z,39.40
2022-08-08T12:42:33.822Z,39.60
2022-08-08T12:46:00.135Z,41.00
2022-08-08T12:48:35.746Z,42.80
2022-08-08T12:50:57.595Z,45.70
2022-08-08T12:53:36.427Z,43.30
2022-08-08T12:56:19.314Z,43.70
2022-08-08T12:58:55.223Z,41.90
2022-08-08T13:01:37.028Z,38.50
2022-08-08T13:04:24.469Z,40.00
2022-08-08T13:07:00.773Z,40.00
2022-08-08T13:09:43.316Z,40.00
2022-08-08T13:12:29.278Z,40.60
2022-08-08T13:14:59.476Z,37.00
2022-08-08T13:17:54.322Z,38.80
2022-08-08T13:20:22.044Z,38.90
2022-08-08T13:22:55.953Z,43.10
2022-08-08T13:25:37.189Z,40.60
2022-08-08T13:28:06.456Z,42.30
2022-08-08T13:30:35.917Z,43.90
2022-08-08T13:33:05.856Z,40.20
2022-08-08T13:35:38.745Z,40.10
2022-08-08T13:38:13.435Z,38.70
2022-08-08T13:40:44.666Z,38.80
2022-08-08T13:43:16.073Z,38.00
2022-08-08T13:45:47.323Z,37.70
2022-08-08T13:48:25.053Z,39.10
2022-08-08T13:51:25.103Z,39.00
2022-08-08T13:53:53.291Z,41.00
2022-08-08T13:56:44.773Z,39.50
2022-08-08T13:59:33.579Z,36.40
2022-08-08T14:02:07.567Z,40.40
2022-08-08T14:04:52.807Z,40.00
2022-08-08T14:07:25.218Z,40.00
2022-08-08T14:10:10.253Z,38.40
2022-08-08T14:12:43.803Z,38.70
2022-08-08T14:15:31.171Z,37.50
2022-08-08T14:18:35.602Z,35.20
2022-08-08T14:21:04.060Z,38.80
2022-08-08T14:24:07.544Z,38.70
2022-08-08T14:26:38.495Z,38.70
2022-08-08T14:29:17.521Z,38.20
2022-08-08T14:32:10.821Z,36.70
2022-08-08T14:34:45.544Z,38.40
2022-08-08T14:37:19.174Z,38.60
2022-08-08T14:40:12.992Z,39.40
2022-08-08T14:42:55.177Z,43.00
2022-08-08T14:45:33.553Z,42.90
2022-08-08T14:48:27.568Z,45.80
2022-08-08T14:51:06.775Z,45.60
2022-08-08T14:53:56.336Z,42.80
2022-08-08T14:56:27.338Z,43.20
2022-08-08T14:58:58.505Z,41.50
2022-08-08T15:01:37.596Z,40.40
2022-08-08T15:04:13.107Z,39.60
2022-08-08T15:06:42.569Z,40.20
2022-08-08T15:09:14.142Z,39.60
2022-08-08T15:11:46.490Z,37.70
2022-08-08T15:14:25.230Z,39.20
2022-08-08T15:16:56.962Z,43.10
2022-08-08T15:19:27.844Z,44.00
2022-08-08T15:21:57.843Z,45.60
2022-08-08T15:24:31.555Z,45.30
2022-08-08T15:27:12.209Z,47.50
2022-08-08T15:29:51.558Z,48.20
2022-08-08T15:32:23.227Z,51.20
2022-08-08T15:34:54.357Z,50.30
2022-08-08T15:37:23.810Z,49.10
2022-08-08T15:39:54.755Z,49.60
2022-08-08T15:42:31.705Z,50.40
2022-08-08T15:45:01.522Z,50.60
2022-08-08T15:47:32.201Z,49.50
2022-08-08T15:50:01.647Z,51.90
2022-08-08T15:52:33.047Z,50.70
2022-08-08T15:55:02.163Z,51.60
2022-08-08T15:57:35.762Z,49.70
2022-08-08T16:00:27.256Z,47.00
2022-08-08T16:03:01.316Z,46.80
2022-08-08T16:05:35.250Z,47.80
2022-08-08T16:08:09.528Z,47.30
2022-08-08T16:13:08.745Z,49.20
2022-08-08T16:13:34.925Z,50.30
2022-08-08T16:16:17.986Z,51.40
2022-08-08T16:18:57.122Z,51.00
2022-08-08T16:21:31.748Z,51.70
2022-08-08T16:24:03.620Z,51.80
2022-08-08T16:26:36.370Z,52.00
2022-08-08T16:29:15.638Z,53.40
2022-08-08T16:31:49.024Z,53.10
2022-08-08T16:34:21.239Z,52.40
2022-08-08T16:36:51.816Z,53.80
2022-08-08T16:39:48.887Z,54.90
2022-08-08T16:42:17.992Z,56.00
2022-08-08T16:44:54.436Z,56.10
2022-08-08T16:47:40.746Z,57.40
2022-08-08T16:50:15.104Z,57.00
2022-08-08T16:54:59.911Z,58.40
2022-08-08T16:55:53.220Z,59.00
2022-08-08T16:58:27.039Z,59.50
2022-08-08T17:01:05.773Z,59.60
2022-08-08T17:03:59.463Z,59.20
2022-08-08T17:06:36.325Z,59.00
2022-08-08T17:09:15.557Z,59.20
2022-08-08T17:11:48.795Z,59.00
2022-08-08T17:14:27.093Z,59.10
2022-08-08T17:17:01.420Z,59.90
2022-08-08T17:19:31.955Z,61.60
2022-08-08T17:22:12.466Z,62.60
2022-08-08T17:24:54.022Z,61.70
2022-08-08T17:27:29.057Z,61.20
2022-08-08T17:30:27.332Z,63.60
2022-08-08T17:34:53.942Z,64.10
2022-08-08T17:35:53.220Z,63.00
2022-08-08T17:38:25.366Z,63.80
2022-08-08T17:41:02.299Z,64.90
2022-08-08T17:44:00.639Z,65.50
2022-08-08T17:46:36.926Z,66.50
2022-08-08T17:49:10.649Z,66.10
2022-08-08T17:51:39.912Z,66.90
2022-08-08T17:54:22.528Z,66.70
2022-08-08T17:56:56.697Z,67.10
2022-08-08T17:59:36.197Z,67.20
2022-08-08T18:02:18.576Z,70.50
2022-08-08T18:05:00.542Z,67.80
2022-08-08T18:08:02.573Z,68.10
2022-08-08T18:10:19.801Z,69.10
2022-08-08T18:13:02.393Z,69.40
2022-08-08T18:15:32.097Z,71.20
2022-08-08T18:18:09.031Z,70.40
2022-08-08T18:20:59.390Z,70.20
2022-08-08T18:23:29.142Z,71.80
2022-08-08T18:26:01.453Z,71.90
2022-08-08T18:28:34.900Z,72.40
2022-08-08T18:31:23.912Z,72.80
2022-08-08T18:34:18.789Z,75.10
2022-08-08T18:36:48.334Z,76.00
2022-08-08T18:39:28.254Z,77.00
2022-08-08T18:42:04.116Z,78.80
2022-08-08T18:44:36.351Z,79.10
2022-08-08T18:47:06.783Z,79.50
2022-08-08T18:49:57.895Z,82.40
2022-08-08T18:52:36.734Z,82.40
2022-08-08T18:55:10.638Z,83.50
2022-08-08T18:57:45.307Z,86.60
2022-08-08T19:00:20.591Z,90.00
2022-08-08T19:02:55.304Z,91.40
2022-08-08T19:05:34.222Z,92.70
2022-08-08T19:08:29.148Z,94.20
2022-08-08T19:11:04.000Z,96.50
2022-08-08T19:13:56.612Z,98.80
2022-08-08T19:16:31.895Z,99.90
2022-08-08T19:19:09.842Z,99.90
2022-08-08T19:21:48.426Z,99.90
2022-08-08T19:24:38.888Z,99.90
2022-08-08T19:27:18.212Z,99.90
2022-08-08T19:30:23.996Z,99.90
2022-08-08T19:33:00.655Z,99.90
2022-08-08T19:35:45.020Z,99.90
2022-08-08T19:38:22.079Z,99.90
2022-08-08T19:40:57.819Z,99.90
2022-08-08T19:43:32.286Z,99.90
2022-08-08T19:46:04.078Z,99.90
2022-08-08T19:48:38.627Z,99.90
2022-08-08T19:51:13.992Z,99.90
2022-08-08T19:53:53.308Z,99.90
2022-08-08T19:56:40.157Z,99.90
2022-08-08T19:59:12.555Z,99.90
2022-08-08T20:02:01.750Z,99.90
2022-08-08T20:04:45.673Z,99.90
2022-08-08T20:08:30.273Z,99.90
2022-08-08T20:10:14.755Z,99.90
2022-08-08T20:12:59.283Z,99.90
2022-08-08T20:16:00.499Z,99.90
2022-08-08T20:18:52.000Z,99.90
2022-08-08T20:21:26.360Z,99.90
2022-08-08T20:24:02.578Z,99.90
2022-08-08T20:26:35.258Z,99.90
2022-08-08T20:29:11.753Z,99.90
2022-08-08T20:32:07.243Z,99.90
2022-08-08T20:34:35.136Z,99.90
2022-08-08T20:37:12.299Z,99.90
2022-08-08T20:39:51.356Z,99.90
2022-08-08T20:42:29.243Z,99.90
2022-08-08T20:45:03.186Z,99.90
2022-08-08T20:47:36.652Z,99.90
2022-08-08T20:50:10.993Z,99.90
2022-08-08T20:52:41.168Z,99.90
2022-08-08T20:55:25.630Z,99.90
2022-08-08T20:57:57.955Z,99.90
2022-08-08T21:00:30.690Z,99.90
2022-08-08T21:03:02.108Z,99.90
2022-08-08T21:05:32.592Z,99.90
2022-08-08T21:08:37.305Z,99.90
2022-08-08T21:11:10.173Z,99.90
2022-08-08T21:13:43.137Z,99.90
2022-08-08T21:16:17.908Z,99.90
2022-08-08T21:18:59.637Z,99.90
2022-08-08T21:21:41.117Z,99.90
2022-08-08T21:24:25.557Z,99.90
2022-08-08T21:27:02.602Z,99.90
2022-08-08T21:30:03.926Z,99.90
2022-08-08T21:32:26.441Z,99.90
2022-08-08T21:36:13.558Z,99.90
2022-08-08T21:37:55.407Z,99.90
2022-08-08T21:40:31.472Z,99.90
2022-08-08T21:43:02.890Z,99.90
2022-08-08T21:48:00.862Z,99.90
2022-08-08T21:48:30.372Z,99.90
2022-08-08T21:51:13.516Z,99.90
2022-08-08T21:54:36.543Z,99.90
2022-08-08T21:56:42.091Z,99.90
2022-08-08T21:59:12.860Z,99.90
2022-08-08T22:01:51.946Z,99.90
2022-08-08T22:04:28.398Z,99.90
2022-08-08T22:06:57.708Z,99.90
2022-08-08T22:09:37.512Z,99.90
2022-08-08T22:12:14.962Z,99.90
2022-08-08T22:14:50.253Z,99.90
2022-08-08T22:17:21.953Z,99.90
2022-08-08T22:20:10.848Z,99.90
2022-08-08T22:22:42.208Z,99.90
2022-08-08T22:25:24.604Z,99.90
2022-08-08T22:28:04.625Z,99.90
2022-08-08T22:30:53.029Z,99.90
2022-08-08T22:34:13.041Z,99.90
2022-08-08T22:36:16.105Z,99.90
2022-08-08T22:38:52.444Z,99.90
2022-08-08T22:41:42.196Z,99.90
2022-08-08T22:44:12.848Z,99.90
2022-08-08T22:46:42.452Z,99.90
2022-08-08T22:49:19.996Z,99.90
2022-08-08T22:51:51.370Z,99.90
2022-08-08T22:54:30.241Z,99.90
2022-08-08T22:57:11.576Z,99.90
2022-08-08T22:59:59.648Z,99.90
2022-08-08T23:02:30.618Z,99.90
2022-08-08T23:05:02.166Z,99.90
2022-08-08T23:07:51.865Z,99.90
2022-08-08T23:10:28.999Z,99.90
2022-08-08T23:12:59.671Z,99.90
2022-08-08T23:16:41.229Z,99.90
2022-08-08T23:18:19.751Z,99.90
2022-08-08T23:20:54.957Z,99.90
2022-08-08T23:23:25.459Z,99.90
2022-08-08T23:25:54.491Z,99.90
2022-08-08T23:28:26.967Z,99.90
2022-08-08T23:30:55.954Z,99.90
2022-08-08T23:34:17.325Z,99.90
2022-08-08T23:36:14.130Z,99.90
2022-08-08T23:38:51.910Z,99.90
2022-08-08T23:41:24.657Z,99.90
2022-08-08T23:43:56.239Z,99.90
2022-08-08T23:49:08.351Z,99.90
2022-08-08T23:49:18.951Z,99.90
2022-08-08T23:52:04.318Z,99.90
2022-08-08T23:54:53.146Z,99.90
2022-08-08T23:57:39.367Z,99.90
